• Join FlightAware (Why Join?)
  • Login
  • US Flag 
03:29PM EDT


 

Airport Tracker/Info


-or-


 

Live Flight TrackerFlight Track Log ✈ CSN3801 ✈ 11-Apr-2013 ✈ ZGGG / CAN - ZSHC / HGH

Flight Track Log - Related Links

Times and Time Zones

All times are in EDT time to prevent confusion due to time zone crossing. See the CSN3801 flight status page for this flight to view local times or setup timezone preferences in your user account.

Time Position Orientation Groundspeed Altitude Reporting Facility
EDT Latitude Longitude Course Direction KTS MPH feet Rate Location/Type
09:13AM 23.4240 113.3230 29° Northeast 154 177 2,500  Level FlightAware
09:13AM 23.4400 113.3330 30° Northeast 186 214 3,000 1,500 Climbing FlightAware
09:14AM 23.4670 113.3500 30° Northeast 230 265 3,900 2,040 Climbing FlightAware
09:14AM 23.4910 113.3690 36° Northeast 263 303 4,900 2,400 Climbing FlightAware
09:15AM 23.4980 113.3840 63° Northeast 274 315 5,500 1,980 Climbing FlightAware
09:15AM 23.5050 113.4280 80° East 291 335 6,400 1,380 Climbing FlightAware
09:16AM 23.5130 113.4650 77° East 290 334 6,800 420 Climbing FlightAware
09:16AM 23.5320 113.5040 62° Northeast 291 335 6,800  Level FlightAware
09:17AM 23.5510 113.5430 62° Northeast 292 336 6,800 -180 Level FlightAware
09:17AM 23.5570 113.5560 63° Northeast 292 336 6,700  Descending FlightAware
09:17AM 23.5750 113.5960 64° Northeast 294 338 6,800 60 Climbing FlightAware
09:18AM 23.5900 113.6260 61° Northeast 293 337 6,800 720 Level FlightAware
09:18AM 23.6000 113.6480 64° Northeast 295 339 7,300 2,520 Climbing FlightAware
09:18AM 23.6170 113.6900 66° East 300 345 8,700 2,700 Climbing FlightAware
09:19AM 23.6230 113.7050 66° East 308 354 9,100 2,400 Climbing FlightAware
09:19AM 23.6460 113.7730 70° East 344 396 10,900 2,460 Climbing FlightAware
09:20AM 23.6750 113.8460 67° East 361 415 12,800 1,320 Climbing FlightAware
09:21AM 23.7060 113.9080 61° Northeast 363 418 12,800  Level FlightAware
09:22AM 23.7460 113.9880 61° Northeast 365 420 12,800  Level FlightAware
09:22AM 23.7740 114.0430 61° Northeast 365 420 12,800  Level FlightAware
09:23AM 23.8200 114.1370 62° Northeast 363 418 12,800 180 Level FlightAware
09:24AM 23.8510 114.2020 62° Northeast 363 418 13,100 1,500 Climbing FlightAware
09:24AM 23.8820 114.2770 66° East 378 435 15,000 2,580 Climbing FlightAware
09:25AM 23.9110 114.3490 66° East 386 444 16,800 2,400 Climbing FlightAware
09:26AM 23.9390 114.4230 67° East 403 464 18,200 1,860 Climbing FlightAware
09:27AM 23.9740 114.5100 66° East 427 491 19,500 2,040 Climbing FlightAware
09:27AM 24.0090 114.5930 65° Northeast 432 497 21,100 1,860 Climbing FlightAware
09:28AM 24.0420 114.6460 56° Northeast 437 503 21,700 1,680 Climbing FlightAware
09:28AM 24.1050 114.7020 39° Northeast 431 496 23,100 1,860 Climbing FlightAware
09:29AM 24.1730 114.7580 37° Northeast 432 497 24,400 960 Climbing FlightAware
09:30AM 24.2610 114.8310 37° Northeast 446 513 24,700 180 Climbing FlightAware
09:31AM 24.3170 114.8770 37° Northeast 446 513 24,700  Level FlightAware
09:31AM 24.3730 114.9240 37° Northeast 446 513 24,700  Level FlightAware
09:32AM 24.4290 114.9700 37° Northeast 446 513 24,700  Level FlightAware
09:33AM 24.4850 115.0160 37° Northeast 446 513 24,700  Level FlightAware
09:34AM 24.5550 115.0740 37° Northeast 446 513 24,700  Level FlightAware
09:36AM 24.7145 115.2151 39° Northeast  Level Estimated
09:37AM 24.7962 115.2876 39° Northeast  Level Estimated
09:38AM 24.8779 115.3602 39° Northeast  Level Estimated
09:39AM 24.9595 115.4328 39° Northeast  Level Estimated
09:40AM 25.0412 115.5056 39° Northeast  Level Estimated
09:41AM 25.1227 115.5785 39° Northeast  Level Estimated
09:42AM 25.2043 115.6515 39° Northeast  Level Estimated
09:43AM 25.2858 115.7245 39° Northeast  Level Estimated
09:44AM 25.3673 115.7977 39° Northeast  Level Estimated
09:45AM 25.4487 115.8710 39° Northeast  Level Estimated
09:46AM 25.5301 115.9443 39° Northeast  Level Estimated
09:47AM 25.6115 116.0178 39° Northeast  Level Estimated
09:48AM 25.6928 116.0914 39° Northeast  Level Estimated
09:49AM 25.7741 116.1650 39° Northeast  Level Estimated
09:50AM 25.8554 116.2388 39° Northeast  Level Estimated
09:51AM 25.9366 116.3127 39° Northeast  Level Estimated
09:52AM 26.0178 116.3867 39° Northeast  Level Estimated
09:53AM 26.0989 116.4607 39° Northeast  Level Estimated
09:54AM 26.1800 116.5349 39° Northeast  Level Estimated
09:55AM 26.2611 116.6092 39° Northeast  Level Estimated
09:56AM 26.3421 116.6836 39° Northeast  Level Estimated
09:57AM 26.4231 116.7581 39° Northeast  Level Estimated
09:58AM 26.5041 116.8326 40° Northeast  Level Estimated
09:59AM 26.5850 116.9073 40° Northeast  Level Estimated
10:00AM 26.6658 116.9821 40° Northeast  Level Estimated
10:01AM 26.7467 117.0571 40° Northeast  Level Estimated
10:02AM 26.8275 117.1321 40° Northeast  Level Estimated
10:03AM 26.9083 117.2072 40° Northeast  Level Estimated
10:04AM 26.9890 117.2824 40° Northeast  Level Estimated
10:05AM 27.0697 117.3578 40° Northeast  Level Estimated
10:06AM 27.1503 117.4332 40° Northeast  Level Estimated
10:07AM 27.2309 117.5088 40° Northeast  Level Estimated
10:08AM 27.3114 117.5844 40° Northeast  Level Estimated
10:09AM 27.3920 117.6602 40° Northeast  Level Estimated
10:10AM 27.4724 117.7361 40° Northeast  Level Estimated
10:11AM 27.5529 117.8121 40° Northeast  Level Estimated
10:12AM 27.6333 117.8882 40° Northeast  Level Estimated
10:13AM 27.7136 117.9644 40° Northeast  Level Estimated
10:14AM 27.7939 118.0407 40° Northeast  Level Estimated
10:15AM 27.8742 118.1172 40° Northeast  Level Estimated
10:16AM 27.9544 118.1937 40° Northeast  Level Estimated
10:17AM 28.0346 118.2704 40° Northeast  Level Estimated
10:18AM 28.1147 118.3472 40° Northeast  Level Estimated
10:19AM 28.1948 118.4241 40° Northeast  Level Estimated
10:20AM 28.2749 118.5011 40° Northeast  Level Estimated
10:21AM 28.3549 118.5782 40° Northeast  Level Estimated
10:22AM 28.4349 118.6555 40° Northeast  Level Estimated
10:23AM 28.5148 118.7328 40° Northeast  Level Estimated
10:24AM 28.5947 118.8103 40° Northeast  Level Estimated
10:25AM 28.6745 118.8879 40° Northeast  Level Estimated
10:26AM 28.7543 118.9657 40° Northeast  Level Estimated
10:27AM 28.8340 119.0435 41° Northeast  Level Estimated
10:28AM 28.9137 119.1215 41° Northeast  Level Estimated
10:29AM 28.9934 119.1995 41° Northeast  Level Estimated
10:30AM 29.0730 119.2777 41° Northeast  Level Estimated
10:31AM 29.1526 119.3560 41° Northeast  Level Estimated
10:32AM 29.2321 119.4345 41° Northeast  Level Estimated
10:33AM 29.3116 119.5130 41° Northeast  Level Estimated
10:34AM 29.3910 119.5917 41° Northeast  Level Estimated
10:35AM 29.4704 119.6705 41° Northeast  Level Estimated
10:36AM 29.5497 119.7495 41° Northeast  Level Estimated
10:37AM 29.6290 119.8285 41° Northeast  Level Estimated
10:38AM 29.7083 119.9077 41° Northeast  Level Estimated
10:39AM 29.7875 119.9870 41° Northeast  Level Estimated
10:40AM 29.8666 120.0664 41° Northeast  Level Estimated
10:41AM 29.9457 120.1460 41° Northeast  Level Estimated
10:42AM 30.0248 120.2257 41° Northeast  Level Estimated
10:43AM 30.1038 120.3055 41° Northeast  Level Estimated
10:44AM 30.1827 120.3854 41° Northeast  Level Estimated
10:45AM 30.2283 120.4317 41° Northeast  Level Estimated
10:46AM 30.2283 120.4317 319° Northwest  Level Estimated
10:47AM 30.2283 120.4317 319° Northwest  Level Estimated
10:48AM 30.2283 120.4317 319° Northwest  Level Estimated
10:49AM 30.2283 120.4317 319° Northwest  Level Estimated
10:50AM 30.2283 120.4317 319° Northwest  Level Estimated
10:51AM 30.2283 120.4317 319° Northwest  Level Estimated
10:52AM 30.2283 120.4317 319° Northwest  Level Estimated
10:53AM 30.2283 120.4317 319° Northwest  Level Estimated
10:54AM 30.2283 120.4317 319° Northwest  Level Estimated
10:55AM 30.2283 120.4317 319° Northwest  Level Estimated
10:56AM 30.2283 120.4317 319° Northwest  Level Estimated
10:57AM 30.2283 120.4317 319° Northwest  Level Estimated
10:58AM 30.2283 120.4317 319° Northwest  Level Estimated